createdAt,value
2018-03-20T00:02:20.814Z,8.10
2018-03-20T00:04:48.276Z,6.50
2018-03-20T00:07:15.767Z,8.77
2018-03-20T00:09:43.198Z,9.60
2018-03-20T00:12:10.645Z,10.90
2018-03-20T00:14:38.187Z,7.80
2018-03-20T00:17:06.666Z,11.37
2018-03-20T00:19:34.102Z,8.80
2018-03-20T00:22:02.330Z,9.77
2018-03-20T00:24:29.770Z,7.77
2018-03-20T00:26:57.211Z,8.23
2018-03-20T00:29:25.424Z,9.03
2018-03-20T00:31:52.860Z,15.63
2018-03-20T00:34:20.319Z,11.53
2018-03-20T00:36:47.780Z,9.47
2018-03-20T00:39:15.222Z,8.67
2018-03-20T00:41:43.071Z,10.67
2018-03-20T00:44:10.532Z,10.60
2018-03-20T00:46:37.990Z,11.47
2018-03-20T00:49:06.227Z,11.90
2018-03-20T00:51:33.683Z,13.03
2018-03-20T00:54:01.891Z,13.93
2018-03-20T00:56:29.359Z,13.57
2018-03-20T00:58:56.815Z,11.13
2018-03-20T01:01:24.661Z,11.40
2018-03-20T01:03:52.506Z,9.90
2018-03-20T01:06:20.370Z,7.37
2018-03-20T01:08:48.599Z,7.80
2018-03-20T01:11:16.839Z,12.27
2018-03-20T01:13:44.699Z,10.63
2018-03-20T01:16:12.591Z,9.30
2018-03-20T01:18:40.793Z,6.70
2018-03-20T01:21:08.655Z,10.63
2018-03-20T01:23:36.509Z,9.17
2018-03-20T01:26:04.702Z,9.50
2018-03-20T01:28:32.948Z,9.70
2018-03-20T01:31:00.783Z,7.80
2018-03-20T01:33:28.641Z,10.50
2018-03-20T01:35:56.855Z,10.87
2018-03-20T01:38:24.743Z,11.70
2018-03-20T01:40:52.965Z,9.67
2018-03-20T01:43:20.888Z,10.80
2018-03-20T01:45:48.332Z,13.03
2018-03-20T01:48:15.793Z,9.13
2018-03-20T01:50:43.268Z,9.20
2018-03-20T01:53:18.553Z,8.47
2018-03-20T01:55:46.020Z,7.90
2018-03-20T01:58:13.459Z,8.93
2018-03-20T02:00:40.903Z,12.50
2018-03-20T02:03:09.127Z,14.27
2018-03-20T02:05:36.559Z,11.73
2018-03-20T02:08:04.780Z,10.20
2018-03-20T02:10:32.224Z,10.47
2018-03-20T02:13:00.443Z,10.80
2018-03-20T02:15:28.811Z,8.50
2018-03-20T02:17:56.250Z,10.60
2018-03-20T02:20:24.483Z,11.20
2018-03-20T02:22:51.952Z,6.50
2018-03-20T02:25:19.409Z,10.63
2018-03-20T02:27:46.866Z,8.40
2018-03-20T02:30:14.312Z,8.83
2018-03-20T02:32:41.747Z,16.33
2018-03-20T02:35:09.196Z,7.80
2018-03-20T02:37:36.647Z,12.17
2018-03-20T02:40:04.119Z,7.57
2018-03-20T02:42:31.574Z,11.80
2018-03-20T02:44:59.014Z,7.93
2018-03-20T02:47:27.232Z,10.93
2018-03-20T02:49:54.684Z,10.70
2018-03-20T02:52:22.882Z,10.10
2018-03-20T02:54:50.349Z,13.17
2018-03-20T02:57:18.564Z,10.77
2018-03-20T02:59:46.022Z,10.60
2018-03-20T03:02:13.468Z,9.07
2018-03-20T03:04:41.692Z,9.70
2018-03-20T03:07:09.140Z,9.67
2018-03-20T03:09:36.598Z,13.70
2018-03-20T03:12:04.055Z,7.10
2018-03-20T03:14:32.293Z,9.03
2018-03-20T03:16:59.777Z,11.10
2018-03-20T03:19:27.219Z,9.53
2018-03-20T03:21:54.673Z,5.73
2018-03-20T03:24:22.135Z,8.30
2018-03-20T03:26:49.579Z,8.57
2018-03-20T03:29:17.803Z,11.47
2018-03-20T03:31:45.252Z,10.60
2018-03-20T03:34:12.703Z,10.43
2018-03-20T03:36:40.914Z,8.63
2018-03-20T03:39:08.374Z,8.40
2018-03-20T03:41:36.590Z,13.90
2018-03-20T03:44:04.059Z,9.20
2018-03-20T03:46:32.643Z,11.17
2018-03-20T03:49:00.104Z,9.47
2018-03-20T03:51:27.556Z,8.03
2018-03-20T03:53:55.014Z,22.83
2018-03-20T03:56:23.227Z,12.00
2018-03-20T03:58:50.680Z,12.80
2018-03-20T04:01:18.904Z,7.40
2018-03-20T04:03:46.389Z,9.43
2018-03-20T04:06:13.848Z,12.97
2018-03-20T04:08:41.703Z,10.23
2018-03-20T04:11:09.162Z,9.27
2018-03-20T04:13:36.621Z,12.10
2018-03-20T04:16:04.831Z,15.13
2018-03-20T04:18:32.287Z,9.93
2018-03-20T04:20:59.818Z,10.40
2018-03-20T04:23:27.976Z,15.10
2018-03-20T04:25:55.436Z,11.57
2018-03-20T04:28:22.887Z,15.27
2018-03-20T04:30:50.328Z,9.30
2018-03-20T04:33:17.816Z,8.80
2018-03-20T04:35:45.274Z,12.20
2018-03-20T04:38:12.761Z,13.40
2018-03-20T04:40:40.211Z,15.00
2018-03-20T04:43:07.658Z,11.43
2018-03-20T04:45:35.907Z,16.10
2018-03-20T04:48:03.372Z,15.90
2018-03-20T04:50:30.840Z,12.97
2018-03-20T04:52:58.283Z,14.20
2018-03-20T04:55:25.740Z,12.00
2018-03-20T04:57:53.988Z,12.37
2018-03-20T05:00:21.440Z,11.40
2018-03-20T05:02:48.888Z,16.60
2018-03-20T05:05:16.359Z,15.60
2018-03-20T05:07:43.802Z,14.10
2018-03-20T05:10:11.263Z,13.20
2018-03-20T05:12:39.535Z,13.60
2018-03-20T05:15:06.991Z,12.00
2018-03-20T05:17:34.438Z,14.90
2018-03-20T05:23:26.247Z,16.03
2018-03-20T05:25:53.723Z,16.50
2018-03-20T05:28:21.928Z,10.70
2018-03-20T05:30:49.783Z,18.53
2018-03-20T05:33:18.019Z,15.20
2018-03-20T05:35:46.583Z,10.83
2018-03-20T05:38:14.032Z,17.57
2018-03-20T05:40:41.542Z,13.53
2018-03-20T05:43:08.979Z,17.40
2018-03-20T05:45:37.197Z,10.27
2018-03-20T05:51:20.554Z,24.80
2018-03-20T05:53:48.807Z,15.53
2018-03-20T05:56:16.264Z,24.97
2018-03-20T05:58:43.712Z,18.90
2018-03-20T06:01:11.184Z,14.27
2018-03-20T06:03:38.631Z,17.70
2018-03-20T06:06:06.072Z,13.83
2018-03-20T06:08:34.320Z,18.13
2018-03-20T06:11:01.758Z,15.17
2018-03-20T06:13:29.199Z,17.47
2018-03-20T06:15:57.428Z,26.47
2018-03-20T06:18:24.884Z,14.20
2018-03-20T06:20:52.341Z,11.27
2018-03-20T06:23:19.808Z,19.30
2018-03-20T06:25:47.272Z,16.60
2018-03-20T06:28:14.715Z,18.73
2018-03-20T06:30:42.922Z,22.93
2018-03-20T06:33:10.382Z,15.40
2018-03-20T06:35:38.604Z,16.27
2018-03-20T06:38:06.058Z,18.47
2018-03-20T06:40:33.524Z,14.73
2018-03-20T06:43:01.004Z,17.03
2018-03-20T06:45:28.458Z,18.00
2018-03-20T06:47:55.912Z,17.10
2018-03-20T06:50:23.349Z,18.27
2018-03-20T06:52:50.915Z,16.30
2018-03-20T06:55:18.356Z,16.20
2018-03-20T06:57:45.815Z,19.20
2018-03-20T07:00:13.274Z,16.07
2018-03-20T07:02:40.785Z,13.73
2018-03-20T07:05:08.280Z,15.43
2018-03-20T07:07:35.742Z,18.90
2018-03-20T07:10:03.211Z,18.17
2018-03-20T07:12:30.667Z,19.57
2018-03-20T07:14:58.113Z,18.40
2018-03-20T07:17:25.575Z,17.17
2018-03-20T07:19:53.048Z,23.13
2018-03-20T07:22:20.491Z,23.80
2018-03-20T07:24:47.999Z,35.63
2018-03-20T07:27:15.514Z,27.73
2018-03-20T07:29:43.212Z,21.40
2018-03-20T07:32:10.668Z,21.53
2018-03-20T07:34:38.121Z,34.60
2018-03-20T07:37:05.607Z,21.00
2018-03-20T07:39:33.061Z,34.13
2018-03-20T07:42:01.295Z,23.93
2018-03-20T07:44:28.756Z,24.50
2018-03-20T07:46:56.224Z,30.83
2018-03-20T07:49:23.687Z,22.87
2018-03-20T07:51:51.175Z,34.97
2018-03-20T07:54:18.663Z,21.37
2018-03-20T07:56:46.134Z,26.40
2018-03-20T07:59:13.572Z,23.10
2018-03-20T08:01:41.087Z,29.80
2018-03-20T08:04:08.896Z,36.07
2018-03-20T08:06:36.398Z,24.03
2018-03-20T08:09:04.725Z,24.40
2018-03-20T08:11:32.960Z,27.37
2018-03-20T08:14:01.411Z,31.53
2018-03-20T08:16:29.624Z,28.40
2018-03-20T08:18:57.119Z,24.73
2018-03-20T08:21:24.578Z,29.63
2018-03-20T08:23:52.044Z,39.33
2018-03-20T08:26:19.511Z,31.50
2018-03-20T08:28:47.740Z,43.10
2018-03-20T08:31:15.203Z,41.83
2018-03-20T08:33:42.680Z,49.63
2018-03-20T08:36:10.135Z,54.83
2018-03-20T08:38:37.988Z,41.80
2018-03-20T08:41:05.422Z,61.10
2018-03-20T08:43:32.889Z,55.83
2018-03-20T08:46:01.099Z,54.17
2018-03-20T08:48:29.015Z,55.63
2018-03-20T08:50:56.477Z,53.60
2018-03-20T08:53:23.939Z,50.00
2018-03-20T08:55:51.403Z,65.47
2018-03-20T08:58:19.252Z,71.47
2018-03-20T09:00:46.777Z,55.10
2018-03-20T09:03:14.235Z,51.17
2018-03-20T09:05:41.693Z,59.07
2018-03-20T09:08:09.135Z,51.37
2018-03-20T09:10:36.587Z,64.80
2018-03-20T09:13:04.812Z,57.23
2018-03-20T09:15:32.243Z,66.53
2018-03-20T09:18:00.466Z,67.73
2018-03-20T09:20:27.923Z,75.37
2018-03-20T09:22:55.384Z,61.87
2018-03-20T09:25:22.839Z,76.67
2018-03-20T09:27:50.296Z,80.43
2018-03-20T09:30:18.530Z,62.37
2018-03-20T09:32:46.005Z,75.17
2018-03-20T09:35:13.456Z,78.80
2018-03-20T09:37:40.908Z,75.00
2018-03-20T09:40:08.395Z,61.07
2018-03-20T09:42:35.892Z,65.00
2018-03-20T09:45:03.347Z,68.70
2018-03-20T09:47:30.839Z,78.17
2018-03-20T09:49:58.364Z,60.37
2018-03-20T09:52:25.828Z,58.83
2018-03-20T09:54:53.329Z,47.70
2018-03-20T09:57:20.772Z,52.13
2018-03-20T09:59:48.219Z,55.47
2018-03-20T10:02:16.852Z,59.57
2018-03-20T10:04:44.311Z,59.90
2018-03-20T10:07:11.809Z,55.73
2018-03-20T10:09:39.688Z,58.33
2018-03-20T10:12:11.016Z,64.53
2018-03-20T10:14:38.576Z,48.83
2018-03-20T10:17:06.010Z,58.77
2018-03-20T10:19:33.526Z,48.23
2018-03-20T10:22:01.741Z,47.83
2018-03-20T10:24:29.194Z,40.73
2018-03-20T10:26:57.398Z,44.00
2018-03-20T10:29:24.852Z,54.13
2018-03-20T10:31:52.323Z,38.13
2018-03-20T10:34:19.791Z,52.93
2018-03-20T10:36:47.637Z,47.57
2018-03-20T10:39:15.166Z,53.13
2018-03-20T10:41:43.424Z,55.60
2018-03-20T10:44:10.876Z,50.73
2018-03-20T10:46:38.343Z,41.00
2018-03-20T10:49:06.944Z,43.53
2018-03-20T10:51:35.155Z,38.23
2018-03-20T10:54:02.643Z,36.10
2018-03-20T10:56:30.091Z,40.23
2018-03-20T10:58:57.547Z,26.67
2018-03-20T11:01:32.095Z,36.90
2018-03-20T11:03:59.544Z,23.37
2018-03-20T11:06:27.391Z,20.80
2018-03-20T11:08:55.311Z,30.00
2018-03-20T11:11:22.755Z,27.77
2018-03-20T11:13:50.203Z,20.77
2018-03-20T11:16:18.428Z,24.20
2018-03-20T11:18:45.885Z,27.53
2018-03-20T11:21:13.369Z,20.23
2018-03-20T11:23:40.832Z,22.10
2018-03-20T11:26:08.284Z,19.10
2018-03-20T11:28:35.737Z,18.83
2018-03-20T11:31:03.947Z,21.23
2018-03-20T11:33:31.395Z,14.70
2018-03-20T11:35:58.910Z,14.63
2018-03-20T11:38:26.354Z,21.70
2018-03-20T11:40:53.816Z,17.10
2018-03-20T11:43:21.271Z,15.63
2018-03-20T11:45:48.725Z,18.20
2018-03-20T11:48:16.197Z,16.97
2018-03-20T11:50:44.413Z,12.27
2018-03-20T11:53:11.852Z,13.17
2018-03-20T11:55:39.319Z,16.97
2018-03-20T11:58:07.528Z,6.37
2018-03-20T12:00:34.970Z,14.40
2018-03-20T12:03:03.214Z,16.30
2018-03-20T12:05:30.655Z,7.20
2018-03-20T12:07:58.539Z,11.80
2018-03-20T12:10:25.982Z,5.53
2018-03-20T12:12:53.438Z,5.97
2018-03-20T12:15:21.646Z,6.77
2018-03-20T12:17:49.858Z,11.50
2018-03-20T12:20:17.332Z,6.33
2018-03-20T12:22:45.163Z,4.97
2018-03-20T12:25:12.648Z,6.03
2018-03-20T12:27:40.058Z,14.63
2018-03-20T12:32:57.579Z,2.87
2018-03-20T12:35:25.783Z,2.67
2018-03-20T12:37:53.210Z,4.50
2018-03-20T12:40:20.655Z,2.53
2018-03-20T12:42:48.110Z,3.77
2018-03-20T12:45:15.543Z,3.03
2018-03-20T12:47:42.975Z,4.93
2018-03-20T12:50:10.414Z,2.50
2018-03-20T12:52:37.862Z,3.67
2018-03-20T12:55:05.308Z,2.77
2018-03-20T12:57:33.532Z,2.67
2018-03-20T13:00:00.990Z,2.47
2018-03-20T13:02:28.453Z,4.73
2018-03-20T13:04:55.907Z,3.40
2018-03-20T13:07:23.356Z,2.70
2018-03-20T13:09:50.807Z,6.83
2018-03-20T13:12:18.276Z,3.93
2018-03-20T13:14:45.720Z,2.43
2018-03-20T13:17:13.159Z,2.50
2018-03-20T13:19:40.595Z,2.80
2018-03-20T13:22:08.045Z,5.33
2018-03-20T13:24:35.491Z,2.50
2018-03-20T13:27:02.938Z,3.67
2018-03-20T13:29:30.367Z,5.40
2018-03-20T13:31:57.861Z,2.40
2018-03-20T13:34:26.068Z,1.97
2018-03-20T13:36:53.512Z,1.60
2018-03-20T13:39:21.747Z,1.50
2018-03-20T13:41:49.191Z,1.70
2018-03-20T13:44:16.639Z,3.93
2018-03-20T13:46:44.075Z,1.73
2018-03-20T13:49:11.541Z,2.83
2018-03-20T13:51:39.010Z,12.20
2018-03-20T13:54:06.451Z,3.67
2018-03-20T13:56:33.912Z,2.50
2018-03-20T13:59:01.347Z,3.67
2018-03-20T14:01:29.547Z,2.03
2018-03-20T14:03:57.000Z,2.03
2018-03-20T14:06:24.843Z,1.60
2018-03-20T14:08:53.040Z,1.47
2018-03-20T14:11:20.562Z,1.87
2018-03-20T14:13:48.013Z,3.63
2018-03-20T14:16:15.459Z,1.83
2018-03-20T14:18:43.655Z,2.00
2018-03-20T14:21:11.128Z,1.60
2018-03-20T14:23:38.587Z,1.73
2018-03-20T14:26:06.829Z,1.30
2018-03-20T14:28:34.287Z,2.73
2018-03-20T14:31:01.731Z,3.10
2018-03-20T14:33:29.166Z,6.00
2018-03-20T14:35:56.611Z,3.53
2018-03-20T14:38:24.048Z,3.60
2018-03-20T14:40:51.499Z,1.80
2018-03-20T14:43:18.965Z,2.60
2018-03-20T14:45:46.440Z,1.73
2018-03-20T14:48:14.645Z,1.30
2018-03-20T14:50:42.106Z,1.83
2018-03-20T14:53:09.563Z,10.20
2018-03-20T14:55:37.004Z,2.60
2018-03-20T14:58:04.975Z,1.90
2018-03-20T15:00:32.428Z,6.33
2018-03-20T15:03:00.708Z,2.53
2018-03-20T15:05:28.149Z,1.40
2018-03-20T15:07:55.593Z,4.77
2018-03-20T15:10:23.038Z,2.40
2018-03-20T15:12:50.503Z,1.10
2018-03-20T15:15:17.959Z,1.07
2018-03-20T15:17:45.425Z,2.30
2018-03-20T15:20:13.250Z,2.33
2018-03-20T15:22:40.701Z,1.77
2018-03-20T15:25:08.916Z,3.03
2018-03-20T15:27:36.370Z,1.20
2018-03-20T15:30:04.587Z,2.03
2018-03-20T15:32:32.025Z,1.30
2018-03-20T15:35:00.218Z,1.10
2018-03-20T15:37:28.458Z,2.77
2018-03-20T15:39:55.901Z,1.50
2018-03-20T15:42:23.357Z,2.07
2018-03-20T15:44:50.798Z,1.43
2018-03-20T15:47:19.018Z,1.07
2018-03-20T15:49:46.485Z,2.27
2018-03-20T15:52:13.979Z,1.30
2018-03-20T15:54:41.425Z,4.23
2018-03-20T15:57:08.883Z,1.13
2018-03-20T15:59:36.335Z,1.10
2018-03-20T16:02:03.807Z,1.23
2018-03-20T16:04:31.235Z,2.60
2018-03-20T16:06:58.683Z,3.87
2018-03-20T16:09:26.139Z,1.70
2018-03-20T16:11:53.582Z,5.20
2018-03-20T16:14:21.799Z,3.10
2018-03-20T16:16:49.293Z,5.27
2018-03-20T16:19:16.721Z,2.03
2018-03-20T16:21:44.158Z,1.67
2018-03-20T16:24:11.606Z,2.70
2018-03-20T16:26:39.064Z,5.17
2018-03-20T16:29:06.506Z,2.00
2018-03-20T16:31:33.981Z,1.90
2018-03-20T16:34:01.431Z,9.90
2018-03-20T16:36:28.899Z,1.10
2018-03-20T16:38:56.330Z,2.63
2018-03-20T16:41:24.193Z,1.17
2018-03-20T16:43:51.627Z,4.40
2018-03-20T16:46:19.083Z,4.07
2018-03-20T16:48:46.550Z,4.33
2018-03-20T16:51:13.982Z,2.83
2018-03-20T16:53:41.415Z,5.37
2018-03-20T16:56:08.859Z,3.07
2018-03-20T16:58:36.707Z,1.97
2018-03-20T17:01:04.924Z,4.77
2018-03-20T17:03:32.371Z,1.43
2018-03-20T17:05:59.852Z,3.30
2018-03-20T17:08:27.315Z,1.20
2018-03-20T17:10:54.771Z,5.00
2018-03-20T17:13:23.023Z,1.10
2018-03-20T17:15:50.466Z,4.30
2018-03-20T17:18:17.927Z,1.43
2018-03-20T17:20:45.384Z,4.70
2018-03-20T17:23:12.815Z,2.17
2018-03-20T17:25:40.272Z,5.23
2018-03-20T17:28:07.711Z,2.17
2018-03-20T17:30:35.548Z,2.73
2018-03-20T17:33:03.757Z,1.70
2018-03-20T17:35:37.013Z,3.13
2018-03-20T17:38:04.471Z,1.73
2018-03-20T17:40:31.915Z,6.23
2018-03-20T17:42:59.375Z,9.23
2018-03-20T17:45:26.803Z,5.73
2018-03-20T17:47:55.016Z,1.80
2018-03-20T17:50:22.454Z,8.30
2018-03-20T17:52:50.669Z,3.83
2018-03-20T17:55:18.132Z,3.63
2018-03-20T17:57:45.987Z,5.73
2018-03-20T18:00:13.426Z,18.17
2018-03-20T18:02:40.883Z,19.23
2018-03-20T18:05:08.342Z,13.33
2018-03-20T18:07:35.798Z,11.13
2018-03-20T18:10:03.255Z,3.70
2018-03-20T18:12:31.455Z,3.50
2018-03-20T18:14:58.891Z,5.63
2018-03-20T18:17:27.109Z,4.87
2018-03-20T18:19:54.548Z,2.30
2018-03-20T18:22:21.994Z,1.80
2018-03-20T18:24:49.431Z,1.60
2018-03-20T18:27:16.885Z,3.90
2018-03-20T18:29:44.729Z,6.33
2018-03-20T18:32:12.947Z,2.77
2018-03-20T18:34:40.386Z,3.57
2018-03-20T18:37:08.606Z,2.17
2018-03-20T18:39:36.035Z,2.77
2018-03-20T18:42:04.262Z,2.27
2018-03-20T18:44:32.135Z,3.90
2018-03-20T18:46:59.603Z,20.07
2018-03-20T18:49:27.042Z,2.83
2018-03-20T18:51:54.888Z,2.70
2018-03-20T18:54:22.338Z,2.50
2018-03-20T18:56:49.788Z,3.83
2018-03-20T18:59:17.231Z,3.30
2018-03-20T19:01:45.455Z,2.63
2018-03-20T19:04:12.904Z,2.77
2018-03-20T19:06:40.344Z,4.23
2018-03-20T19:09:08.200Z,3.80
2018-03-20T19:11:35.667Z,12.33
2018-03-20T19:14:03.108Z,1.87
2018-03-20T19:16:30.564Z,1.63
2018-03-20T19:18:58.035Z,18.23
2018-03-20T19:21:25.497Z,5.70
2018-03-20T19:23:52.958Z,2.70
2018-03-20T19:26:20.413Z,6.20
2018-03-20T19:28:48.624Z,4.80
2018-03-20T19:31:16.100Z,2.30
2018-03-20T19:33:43.551Z,2.47
2018-03-20T19:36:11.001Z,2.10
2018-03-20T19:38:39.194Z,2.93
2018-03-20T19:41:06.681Z,3.53
2018-03-20T19:43:34.124Z,1.50
2018-03-20T19:46:02.339Z,1.33
2018-03-20T19:48:29.795Z,1.47
2018-03-20T19:50:57.271Z,2.53
2018-03-20T19:53:24.703Z,2.83
2018-03-20T19:55:52.925Z,3.53
2018-03-20T19:58:21.131Z,7.07
2018-03-20T20:00:48.991Z,2.80
2018-03-20T20:03:16.455Z,2.97
2018-03-20T20:05:44.675Z,2.20
2018-03-20T20:08:12.123Z,6.17
2018-03-20T20:10:39.587Z,2.60
2018-03-20T20:13:07.412Z,2.47
2018-03-20T20:15:34.867Z,2.93
2018-03-20T20:18:02.371Z,4.03
2018-03-20T20:20:29.763Z,1.43
2018-03-20T20:22:57.248Z,2.10
2018-03-20T20:25:24.694Z,4.43
2018-03-20T20:27:52.142Z,1.40
2018-03-20T20:30:20.383Z,2.17
2018-03-20T20:32:47.838Z,3.50
2018-03-20T20:35:15.287Z,2.23
2018-03-20T20:37:42.731Z,3.07
2018-03-20T20:40:10.201Z,3.30
2018-03-20T20:42:38.412Z,2.53
2018-03-20T20:45:05.847Z,2.30
2018-03-20T20:47:33.321Z,2.17
2018-03-20T20:50:00.783Z,4.30
2018-03-20T20:52:28.290Z,3.07
2018-03-20T20:54:55.733Z,2.40
2018-03-20T20:57:24.391Z,2.67
2018-03-20T20:59:51.850Z,2.87
2018-03-20T21:02:19.319Z,2.77
2018-03-20T21:04:46.768Z,2.63
2018-03-20T21:07:14.981Z,3.23
2018-03-20T21:09:42.812Z,2.83
2018-03-20T21:12:10.259Z,4.40
2018-03-20T21:14:37.726Z,5.07
2018-03-20T21:17:05.595Z,1.80
2018-03-20T21:19:33.077Z,2.30
2018-03-20T21:22:00.544Z,3.57
2018-03-20T21:24:28.001Z,2.50
2018-03-20T21:26:55.460Z,9.30
2018-03-20T21:29:23.332Z,2.80
2018-03-20T21:31:50.794Z,3.77
2018-03-20T21:34:18.316Z,2.40
2018-03-20T21:36:46.604Z,3.53
2018-03-20T21:39:14.043Z,2.83
2018-03-20T21:41:41.483Z,4.10
2018-03-20T21:44:08.947Z,9.00
2018-03-20T21:46:36.410Z,13.33
2018-03-20T21:49:03.861Z,3.97
2018-03-20T21:51:31.324Z,3.80
2018-03-20T21:53:59.156Z,3.50
2018-03-20T21:56:26.591Z,3.73
2018-03-20T21:58:54.443Z,5.20
2018-03-20T22:01:21.891Z,3.97
2018-03-20T22:03:49.348Z,5.30
2018-03-20T22:06:16.808Z,4.90
2018-03-20T22:08:44.243Z,8.80
2018-03-20T22:11:11.688Z,3.80
2018-03-20T22:13:39.146Z,2.90
2018-03-20T22:16:06.588Z,2.60
2018-03-20T22:18:34.034Z,17.07
2018-03-20T22:21:01.487Z,5.03
2018-03-20T22:23:28.932Z,4.47
2018-03-20T22:25:56.405Z,5.80
2018-03-20T22:28:23.829Z,9.03
2018-03-20T22:30:51.279Z,8.43
2018-03-20T22:33:18.739Z,7.77
2018-03-20T22:35:46.197Z,5.23
2018-03-20T22:38:13.711Z,19.20
2018-03-20T22:40:41.158Z,5.10
2018-03-20T22:43:08.588Z,8.63
2018-03-20T22:45:36.683Z,8.43
2018-03-20T22:48:04.142Z,8.10
2018-03-20T22:50:31.992Z,5.07
2018-03-20T22:53:00.216Z,5.30
2018-03-20T22:55:27.660Z,6.77
2018-03-20T22:57:55.142Z,6.70
2018-03-20T23:00:28.543Z,5.23
2018-03-20T23:02:55.998Z,6.50
2018-03-20T23:05:24.178Z,3.30
2018-03-20T23:07:52.397Z,3.17
2018-03-20T23:10:19.854Z,7.73
2018-03-20T23:12:47.330Z,13.57
2018-03-20T23:15:14.770Z,5.97
2018-03-20T23:17:43.087Z,6.13
2018-03-20T23:20:10.925Z,3.43
2018-03-20T23:22:38.371Z,5.00
2018-03-20T23:25:05.803Z,6.50
2018-03-20T23:27:33.256Z,5.23
2018-03-20T23:30:00.695Z,6.07
2018-03-20T23:32:28.141Z,3.90
2018-03-20T23:34:55.579Z,3.87
2018-03-20T23:37:23.288Z,6.67
2018-03-20T23:39:50.703Z,6.53
2018-03-20T23:42:18.183Z,4.33
2018-03-20T23:44:45.625Z,4.07
2018-03-20T23:47:13.851Z,3.90
2018-03-20T23:49:41.317Z,5.90
2018-03-20T23:52:08.777Z,9.63
2018-03-20T23:54:36.227Z,6.37
2018-03-20T23:57:04.472Z,7.97
2018-03-20T23:59:31.932Z,10.67
